Pequea, PA

19:09 EST je la 07an de decembro 2016 (GMT -0500)
Pequea, PA | | Change Station

Elev 463 ft 39.92 °N, 76.30 °W | Updated 2 minutes ago

Clear
Sennuba
33.1 °F
Sentas kiel 33 °F
N
0.0
Vento Varianta Vento from Nordo
Gusts 0.0 mej/h

hodiaŭ
High -- | Low -- °F
--% Ebla precip.
hieraŭ
High -- | Low -- °F
Precip. -- co
Aerpremo 30.07 co
Vidodistanco 10.0 mejloj
Nuboj Sennuba
Venta
kvazaŭtemperaturo
33 °F
Rosopunkto 31 °F
Humido 91%
Pluvokvanto co
Neĝprofundo Not available.
7:13 AM 4:40 PM
Unua kvaronluno, 57% visible
METAR KLNS 072353Z 00000KT 10SM CLR 04/M01 A3006 RMK AO2 SLP181 T00391006 10089 20033 53009
Aerpremo 30.07 co
Vidodistanco 10.0 mejloj
Nuboj Sennuba
Venta
kvazaŭtemperaturo
33 °F
Rosopunkto 31 °F
Humido 91%
Pluvokvanto co
Neĝprofundo Not available.
7:13 AM 4:40 PM
Unua kvaronluno, 57% visible
METAR KLNS 072353Z 00000KT 10SM CLR 04/M01 A3006 RMK AO2 SLP181 T00391006 10089 20033 53009

10-Day Weather Forecast

Almanac

Astronomio

Dec. 07, 2016 Leviĝo Subiro
Aktuala tempo
Civila krepusko
Naŭtika krepusko
Astronomia krepusko
Luno
Daŭro de videbla lumo
Daŭro de tago
Tomorrow will be .
, % of the Moon is Illuminated

Hodiaŭaj ekstremaĵoj

State Highs State Lows

Community

WunderPhotos

Upload Photos

1,956,221 photos uploaded!

WunderBlog® & News

Nearby

Aerkvalito

  Aerkvalito Aerkvalita indico Poluanto
Not available.

Neĝa profundeco

Station Depth Alteco

Earthquake Activity

Urbo Distance Mag. Time & Date
Minimum magnitude displayed is 2.5.

Coastal Water Temperatures

Loko Temperaturo

Stations

Najbaraj veter-stacioj

Loko de stacio Temp Venta
kvazaŭtemperaturo
Rosopunkto Humido Vento Precip. Elev Ĝisdatigita je Tipo
                   

Watches & Warnings

There are currently no watches in effect.